Steuben, Ohio
Current Conditions -  °F | °C
As of 1:33 AM on Wednesday 28 Jan 2015 (Local Time) from KPCW Reporting Station
Clear Clear  
Wind Chill:   Ceiling: Unl
Heat Index: 16°   Visibility: 10mi
Dew Point: 10°   Wind: 6mph
Humidity: 79%   Direction: 310°NW
Pressure: 30.23"   Gusts: NA
Location:  41.2282°N, 82.706°W
Report Text: KPCW 280633Z AUTO 31005KT 10SM CLR M09/M12 A3023 RMK AO2 $
Loading
Personal Weather Stations






























Interactive Weather Map New forecast layout! Learn more

10-Day Weather Forecast

Advertisements
Track Severe Weather on mobile